METAR Data
IDs: Format: Raw Decoded Include TAF

Data at: 1925 UTC 25 Oct 2021

EPWA 251900Z 16006KT CAVOK 05/01 Q1022 NOSIG